WetterOnline ( https://www.wetteronline.de )

Wetter aktuell Magdeburg

Aktuelles Wetter: Magdeburg (85m)

6-stündlich | Neueste Meldungen
Ortszeit Temperatur Wetter
Sa, 08.05. 8:00 6.6° C wolkenlos
Sa, 08.05. 2:00 4.8° C wolkenlos
Fr, 07.05. 20:00 8.5° C wolkig
Fr, 07.05. 14:00 7.1° C bedeckt
Fr, 07.05. 8:00 1.2° C Schneeregen
Fr, 07.05. 2:00 6.9° C wolkig
Do, 06.05. 20:00 9.2° C bedeckt
Do, 06.05. 14:00 9.8° C wolkig
Ortszeit Temperatur Wetter
Sa, 08.05. 12:30 12.4° C wolkenlos
Sa, 08.05. 12:10 12.6° C wolkenlos
Sa, 08.05. 12:00 12.3° C fast wolkenlos
Sa, 08.05. 11:50 12.3° C fast wolkenlos
Sa, 08.05. 11:40 11.9° C leicht bewölkt
Sa, 08.05. 11:30 11.1° C leicht bewölkt
Sa, 08.05. 11:00 10.7° C wolkenlos
Sa, 08.05. 10:30 10.6° C wolkenlos
Sa, 08.05. 10:00 9.8° C wolkenlos
Sa, 08.05. 9:30 9.6° C wolkenlos
Sa, 08.05. 9:00 8.5° C wolkenlos
Ortszeit Relative Feuchte Sichtweite
Sa, 08.05. 8:00 73% 35 km
Sa, 08.05. 2:00 76% 50 km
Fr, 07.05. 20:00 69% 55 km
Fr, 07.05. 14:00 81% 40 km
Fr, 07.05. 8:00 94% 1.0 km
Fr, 07.05. 2:00 73% 30 km
Do, 06.05. 20:00 60% 45 km
Do, 06.05. 14:00 58% 35 km
Ortszeit Relative Feuchte Sichtweite
Sa, 08.05. 12:30 44% 50 km
Sa, 08.05. 12:10 43% -
Sa, 08.05. 12:00 49% 50 km
Sa, 08.05. 11:50 49% -
Sa, 08.05. 11:40 47% -
Sa, 08.05. 11:30 49% 40 km
Sa, 08.05. 11:00 52% 45 km
Sa, 08.05. 10:30 57% 40 km
Sa, 08.05. 10:00 57% 50 km
Sa, 08.05. 9:30 63% 40 km
Sa, 08.05. 9:00 66% 45 km
Ortszeit Niederschlagsmenge Niederschlagsart
Sa, 08.05. 8:00 0.1 l/m2 in 12 Std. -
Sa, 08.05. 2:00 0.1 l/m2 in 6 Std. Regen
Fr, 07.05. 20:00 2 l/m2 in 12 Std. Regen
Fr, 07.05. 14:00 2 l/m2 in 6 Std. Schnee, Regen
Fr, 07.05. 8:00 8 l/m2 in 12 Std. Schnee, Regen
Fr, 07.05. 2:00 0.1 l/m2 in 6 Std. Regen
Do, 06.05. 20:00 0.4 l/m2 in 12 Std. -
Do, 06.05. 14:00 0.4 l/m2 in 6 Std. Regen
Ortszeit Niederschlagsmenge Niederschlagsart
Sa, 08.05. 12:30 0.0 l/m2 in 1 Std. -
Sa, 08.05. 12:10 keine Meldung -
Sa, 08.05. 12:00 0.0 l/m2 in 1 Std. -
Sa, 08.05. 11:50 keine Meldung -
Sa, 08.05. 11:40 keine Meldung -
Sa, 08.05. 11:30 0.0 l/m2 in 1 Std. -
Sa, 08.05. 11:00 0.0 l/m2 in 1 Std. -
Sa, 08.05. 10:30 0.0 l/m2 in 1 Std. -
Sa, 08.05. 10:00 0.0 l/m2 in 1 Std. -
Sa, 08.05. 9:30 0.0 l/m2 in 1 Std. -
Sa, 08.05. 9:00 0.0 l/m2 in 1 Std. -
Ortszeit Stärke Spitze Richtung
km/h Bft. km/h Grad Sektor
Sa, 08.05. 8:00 7 2 14 240° SW
Sa, 08.05. 2:00 7 2 22 250° W
Fr, 07.05. 20:00 9 2 46 280° W
Fr, 07.05. 14:00 7 2 39 330° NW
Fr, 07.05. 8:00 7 2 29 320° NW
Fr, 07.05. 2:00 4 1 18 350° N
Do, 06.05. 20:00 7 2 35 190° S
Do, 06.05. 14:00 17 3 39 260° W
Ortszeit Stärke Spitze Richtung
km/h Bft. km/h Grad Sektor
Sa, 08.05. 12:30 7 2 17 240° SW
Sa, 08.05. 12:10 7 2 - 250° W
Sa, 08.05. 12:00 9 2 20 260° W
Sa, 08.05. 11:50 9 2 - 260° W
Sa, 08.05. 11:40 7 2 - 250° W
Sa, 08.05. 11:30 11 2 20 220° SW
Sa, 08.05. 11:00 11 2 22 250° W
Sa, 08.05. 10:30 11 2 18 250° W
Sa, 08.05. 10:00 9 2 19 270° W
Sa, 08.05. 9:30 7 2 15 240° SW
Sa, 08.05. 9:00 9 2 19 250° W
Ortszeit Untergrenze Bedeckung Gattung
total tief tief mittel hoch
Sa, 08.05. 8:00 - 0/8 0/8 - - -
Sa, 08.05. 2:00 - 0/8 0/8 - - -
Fr, 07.05. 20:00 2400 m 6/8 6/8 - - -
Fr, 07.05. 14:00 630 m 8/8 8/8 - - -
Fr, 07.05. 8:00 210 m 7/8 7/8 - - -
Fr, 07.05. 2:00 1200 m 6/8 6/8 - - -
Do, 06.05. 20:00 3600 m 8/8 8/8 - - -
Do, 06.05. 14:00 1050 m 5/8 5/8 - - -
Ortszeit Bedeckungsgrad in Achtel und Wolkenuntergrenze
Sa, 08.05. 12:30 keine Wolken
Sa, 08.05. 12:10 keine Wolken
Sa, 08.05. 12:00 1(6000m) 2(6900m)
Sa, 08.05. 11:50 1(6000m)
Sa, 08.05. 11:40 2(6300m)
Sa, 08.05. 11:30 2(1170m) 3(6300m) 4(7200m)
Sa, 08.05. 11:00 1(1140m)
Sa, 08.05. 10:30 keine Wolken
Sa, 08.05. 10:00 keine Wolken
Sa, 08.05. 9:30 keine Wolken
Sa, 08.05. 9:00 keine Wolken
Ortszeit Luftdruck NN (hPa) Tendenz (hPa in 3 Std.)
Sa, 08.05. 8:00 1019 + 0,9
Sa, 08.05. 2:00 1018 + 1,0
Fr, 07.05. 20:00 1016 + 1,5
Fr, 07.05. 14:00 1012 + 1,9
Fr, 07.05. 8:00 1008 + 2,4
Fr, 07.05. 2:00 1005 - 0,3
Do, 06.05. 20:00 1005 - 1,1
Do, 06.05. 14:00 1007 - 0,2
Ortszeit Luftdruck NN (hPa) Tendenz (hPa in 3 Std.)
Sa, 08.05. 12:30 1018 - 0,8
Sa, 08.05. 12:10 1019 keine Meldung
Sa, 08.05. 12:00 1019 - 0,3
Sa, 08.05. 11:50 1019 keine Meldung
Sa, 08.05. 11:40 1019 keine Meldung
Sa, 08.05. 11:30 1019 0,0
Sa, 08.05. 11:00 1019 + 0,1
Sa, 08.05. 10:30 1019 + 0,3
Sa, 08.05. 10:00 1019 + 0,5
Sa, 08.05. 9:30 1019 + 0,7
Sa, 08.05. 9:00 1019 + 0,8
Ortszeit Schneehöhe (cm)
Sa, 08.05. 8:00 0
Sa, 08.05. 2:00 0
Fr, 07.05. 20:00 0
Fr, 07.05. 14:00 0
Fr, 07.05. 8:00 0
Fr, 07.05. 2:00 0
Do, 06.05. 20:00 0
Do, 06.05. 14:00 0
Ortszeit Schneehöhe (cm)
Sa, 08.05. 12:30 0
Sa, 08.05. 12:10 0
Sa, 08.05. 12:00 0
Sa, 08.05. 11:50 0
Sa, 08.05. 11:40 0
Sa, 08.05. 11:30 0
Sa, 08.05. 11:00 0
Sa, 08.05. 10:30 0
Sa, 08.05. 10:00 0
Sa, 08.05. 9:30 0
Sa, 08.05. 9:00 0
Link zu dieser Seite / Seite empfehlen

Das Wetter in ...